Time;durP1;ratioP1;P1;durP2;ratioP2;P2;SDS_P1;SDS_P2;PMS_P1;PMS_P2;Temp;Humidity;BMP_temperature;BMP_pressure;BME280_temperature;BME280_humidity;BME280_pressure;Samples;Min_cycle;Max_cycle;Signal;HPM_P1;HPM_P2
2022/07/20 00:00:08;;;;;;;14.82;2.72;;;;;;;;;;4935400;29;20027;-52
2022/07/20 00:02:36;;;;;;;11.80;2.50;;;;;;;;;;4935328;29;20478;-54
2022/07/20 00:05:03;;;;;;;9.70;2.83;;;;;;;;;;4933734;29;20479;-55
2022/07/20 00:07:30;;;;;;;14.90;2.53;;;;;;;;;;4934204;29;20027;-53
2022/07/20 00:12:43;;;;;;;12.10;2.38;;;;;;;;;;4935328;29;20482;-53
2022/07/20 00:15:10;;;;;;;14.65;2.10;;;;;;;;;;4934850;29;20032;-56
2022/07/20 00:17:37;;;;;;;12.48;2.00;;;;;;;;;;4931838;29;20066;-55
2022/07/20 00:20:04;;;;;;;6.10;1.80;;;;;;;;;;4934384;29;20031;-51
2022/07/20 00:22:31;;;;;;;7.50;2.30;;;;;;;;;;4933489;29;20052;-51
2022/07/20 00:24:58;;;;;;;12.95;2.55;;;;;;;;;;4934626;29;20400;-54
2022/07/20 00:27:25;;;;;;;11.15;1.90;;;;;;;;;;4934647;29;20034;-56
2022/07/20 00:29:52;;;;;;;11.05;2.25;;;;;;;;;;4932580;29;20094;-53
2022/07/20 00:32:19;;;;;;;8.23;2.17;;;;;;;;;;4934535;29;20046;-54
2022/07/20 00:34:46;;;;;;;11.52;1.90;;;;;;;;;;4935364;29;20111;-56
2022/07/20 00:37:13;;;;;;;17.05;2.17;;;;;;;;;;4934654;29;20034;-54
2022/07/20 00:39:40;;;;;;;10.07;2.10;;;;;;;;;;4935227;29;20505;-54
2022/07/20 00:42:07;;;;;;;12.20;2.50;;;;;;;;;;4930670;29;20422;-53
2022/07/20 00:44:34;;;;;;;10.23;2.20;;;;;;;;;;4934934;29;20032;-53
2022/07/20 00:47:01;;;;;;;12.15;2.05;;;;;;;;;;4934049;29;20044;-56
2022/07/20 00:49:28;;;;;;;11.77;2.13;;;;;;;;;;4935082;29;20024;-53
2022/07/20 00:51:55;;;;;;;7.60;1.75;;;;;;;;;;4933848;29;20039;-52
2022/07/20 00:54:22;;;;;;;9.18;1.90;;;;;;;;;;4932387;29;20039;-54
2022/07/20 00:56:49;;;;;;;14.15;2.00;;;;;;;;;;4934865;29;20107;-55
2022/07/20 00:59:15;;;;;;;6.97;1.95;;;;;;;;;;4934539;29;20430;-54
2022/07/20 01:01:42;;;;;;;8.13;1.98;;;;;;;;;;4934584;29;20035;-53
2022/07/20 01:04:09;;;;;;;11.48;1.90;;;;;;;;;;4933037;29;20704;-55
2022/07/20 01:06:37;;;;;;;7.78;1.98;;;;;;;;;;4933882;29;20028;-53
2022/07/20 01:09:04;;;;;;;8.35;2.00;;;;;;;;;;4932849;29;20509;-55
2022/07/20 01:11:30;;;;;;;9.88;1.83;;;;;;;;;;4934055;29;20036;-54
2022/07/20 01:14:03;;;;;;;8.82;2.40;;;;;;;;;;4934707;29;20028;-55
2022/07/20 01:16:30;;;;;;;9.40;1.83;;;;;;;;;;4932808;29;20019;-52
2022/07/20 01:18:57;;;;;;;8.65;1.85;;;;;;;;;;4933574;29;20044;-54
2022/07/20 01:21:24;;;;;;;5.63;1.73;;;;;;;;;;4933878;29;20111;-51
2022/07/20 01:23:51;;;;;;;10.10;2.25;;;;;;;;;;4934731;29;20501;-55
2022/07/20 01:26:18;;;;;;;5.85;2.00;;;;;;;;;;4933599;29;20031;-57
2022/07/20 01:28:45;;;;;;;8.88;2.70;;;;;;;;;;4933041;29;20024;-56
2022/07/20 01:31:12;;;;;;;9.82;2.25;;;;;;;;;;4936360;29;20032;-56
2022/07/20 01:33:39;;;;;;;14.40;2.20;;;;;;;;;;4937971;29;20019;-55
2022/07/20 01:36:07;;;;;;;12.25;2.25;;;;;;;;;;4937106;29;20027;-54
2022/07/20 01:38:33;;;;;;;6.10;1.70;;;;;;;;;;4937773;29;20028;-55
2022/07/20 01:41:00;;;;;;;5.53;1.63;;;;;;;;;;4935420;29;20028;-50
2022/07/20 01:43:27;;;;;;;10.93;2.10;;;;;;;;;;4937039;29;20558;-51
2022/07/20 01:45:54;;;;;;;8.02;2.00;;;;;;;;;;4937725;29;20083;-53
2022/07/20 01:48:21;;;;;;;10.48;2.10;;;;;;;;;;4937572;29;20067;-57
2022/07/20 01:50:48;;;;;;;4.60;1.80;;;;;;;;;;4937274;29;20070;-54
2022/07/20 01:53:15;;;;;;;8.85;1.73;;;;;;;;;;4935455;29;20099;-50
2022/07/20 01:55:42;;;;;;;7.30;1.98;;;;;;;;;;4937187;29;20043;-56
2022/07/20 01:58:09;;;;;;;7.68;1.67;;;;;;;;;;4936974;29;20027;-52
2022/07/20 02:00:36;;;;;;;4.15;1.73;;;;;;;;;;4937453;29;20106;-53
2022/07/20 02:03:03;;;;;;;9.43;1.65;;;;;;;;;;4937313;29;20032;-55
2022/07/20 02:05:30;;;;;;;6.65;1.85;;;;;;;;;;4934924;29;20505;-52
2022/07/20 02:07:57;;;;;;;3.88;1.50;;;;;;;;;;4937612;29;20036;-52
2022/07/20 02:10:24;;;;;;;7.25;1.67;;;;;;;;;;4936520;29;20043;-51
2022/07/20 02:12:51;;;;;;;6.13;1.75;;;;;;;;;;4937257;29;20371;-54
2022/07/20 02:18:08;;;;;;;7.70;1.70;;;;;;;;;;4904948;29;20043;-49
2022/07/20 02:20:35;;;;;;;6.50;1.70;;;;;;;;;;4937397;29;20372;-53
2022/07/20 02:23:03;;;;;;;6.57;1.95;;;;;;;;;;4936210;29;20038;-54
2022/07/20 02:25:30;;;;;;;8.60;1.77;;;;;;;;;;4937262;29;20032;-54
2022/07/20 02:27:57;;;;;;;8.30;1.70;;;;;;;;;;4935564;29;20051;-54
2022/07/20 02:30:24;;;;;;;7.28;1.70;;;;;;;;;;4935946;29;20051;-53
2022/07/20 02:32:51;;;;;;;5.40;1.90;;;;;;;;;;4936113;29;20035;-52
2022/07/20 02:35:18;;;;;;;4.57;1.60;;;;;;;;;;4936994;29;20451;-54
2022/07/20 02:37:47;;;;;;;5.85;1.90;;;;;;;;;;4935880;29;20131;-56
2022/07/20 02:40:14;;;;;;;5.93;1.83;;;;;;;;;;4935754;29;20079;-53
2022/07/20 02:42:41;;;;;;;5.65;1.60;;;;;;;;;;4934585;29;20074;-51
2022/07/20 02:45:08;;;;;;;3.58;1.70;;;;;;;;;;4936791;29;20051;-53
2022/07/20 02:47:45;;;;;;;5.57;1.70;;;;;;;;;;4935832;29;20521;-56
2022/07/20 02:50:12;;;;;;;4.88;1.73;;;;;;;;;;4936738;29;20034;-54
2022/07/20 02:52:40;;;;;;;4.53;1.67;;;;;;;;;;4934080;29;20083;-53
2022/07/20 02:55:07;;;;;;;5.35;1.60;;;;;;;;;;4935644;29;20058;-56
2022/07/20 02:57:34;;;;;;;5.40;1.70;;;;;;;;;;4936565;29;20482;-54
2022/07/20 03:00:01;;;;;;;4.22;1.70;;;;;;;;;;4936368;29;20031;-53
2022/07/20 03:02:28;;;;;;;5.78;1.58;;;;;;;;;;4935846;29;20034;-55
2022/07/20 03:04:55;;;;;;;5.07;1.67;;;;;;;;;;4934347;29;20415;-55
2022/07/20 03:07:22;;;;;;;3.47;1.60;;;;;;;;;;4935418;29;20128;-52
2022/07/20 03:09:49;;;;;;;6.80;1.83;;;;;;;;;;4936449;29;20478;-53
2022/07/20 03:12:16;;;;;;;4.10;1.90;;;;;;;;;;4936113;29;20031;-52
2022/07/20 03:14:43;;;;;;;6.63;1.60;;;;;;;;;;4935694;29;20035;-56
2022/07/20 03:17:10;;;;;;;7.15;1.75;;;;;;;;;;4933357;29;20078;-53
2022/07/20 03:19:37;;;;;;;4.47;1.60;;;;;;;;;;4935975;29;20024;-55
2022/07/20 03:22:04;;;;;;;4.05;1.67;;;;;;;;;;4935821;29;20494;-53
2022/07/20 03:24:31;;;;;;;6.30;1.60;;;;;;;;;;4935609;29;20026;-55
2022/07/20 03:26:58;;;;;;;3.72;1.60;;;;;;;;;;4935536;29;20031;-54
2022/07/20 03:29:25;;;;;;;4.70;1.67;;;;;;;;;;4933070;29;20426;-52
2022/07/20 03:31:52;;;;;;;2.75;1.65;;;;;;;;;;4934916;29;20035;-54
2022/07/20 03:34:19;;;;;;;3.20;1.48;;;;;;;;;;4935857;29;20034;-56
2022/07/20 03:36:46;;;;;;;4.57;1.73;;;;;;;;;;4935461;29;20091;-55
2022/07/20 03:39:13;;;;;;;4.25;1.52;;;;;;;;;;4935201;29;20083;-53
2022/07/20 03:41:39;;;;;;;2.85;1.30;;;;;;;;;;4933188;29;20482;-54
2022/07/20 03:44:06;;;;;;;4.68;1.73;;;;;;;;;;4935691;29;20040;-52
2022/07/20 03:46:33;;;;;;;3.72;1.90;;;;;;;;;;4934632;29;20056;-53
2022/07/20 03:49:00;;;;;;;5.85;1.60;;;;;;;;;;4935372;29;20023;-55
2022/07/20 03:51:27;;;;;;;2.80;1.48;;;;;;;;;;4934082;29;20063;-56
2022/07/20 03:53:54;;;;;;;5.63;1.90;;;;;;;;;;4933267;29;20177;-54
2022/07/20 03:56:22;;;;;;;4.88;1.60;;;;;;;;;;4935108;29;20020;-55
2022/07/20 03:58:49;;;;;;;5.25;1.52;;;;;;;;;;4935560;29;20110;-52
2022/07/20 04:01:15;;;;;;;2.88;1.73;;;;;;;;;;4934486;29;20111;-55
2022/07/20 04:03:42;;;;;;;3.42;1.70;;;;;;;;;;4934115;29;20032;-56
2022/07/20 04:06:09;;;;;;;3.40;1.65;;;;;;;;;;4933990;29;20019;-51
2022/07/20 04:08:36;;;;;;;4.28;1.38;;;;;;;;;;4935086;29;20046;-52
2022/07/20 04:11:03;;;;;;;3.25;1.60;;;;;;;;;;4934905;29;20075;-52
2022/07/20 04:13:30;;;;;;;3.15;1.48;;;;;;;;;;4935430;29;20031;-52
2022/07/20 04:15:57;;;;;;;4.65;1.63;;;;;;;;;;4931693;29;20040;-53
2022/07/20 04:18:24;;;;;;;3.33;1.48;;;;;;;;;;4933868;29;20027;-56
2022/07/20 04:20:51;;;;;;;6.13;1.70;;;;;;;;;;4934878;29;20051;-53
2022/07/20 04:23:18;;;;;;;3.80;1.50;;;;;;;;;;4934888;29;20482;-53
2022/07/20 04:25:45;;;;;;;2.65;1.40;;;;;;;;;;4934680;29;20028;-52
2022/07/20 04:28:12;;;;;;;3.53;1.30;;;;;;;;;;4933136;29;20064;-53
2022/07/20 04:30:39;;;;;;;2.67;1.30;;;;;;;;;;4934196;29;20031;-53
2022/07/20 04:33:06;;;;;;;3.13;1.60;;;;;;;;;;4934444;29;20039;-52
2022/07/20 04:35:33;;;;;;;3.33;1.60;;;;;;;;;;4934613;29;20023;-53
2022/07/20 04:38:00;;;;;;;4.28;1.73;;;;;;;;;;4934937;29;20391;-56
2022/07/20 04:40:27;;;;;;;4.85;1.70;;;;;;;;;;4932225;29;20038;-54
2022/07/20 04:42:54;;;;;;;3.47;1.60;;;;;;;;;;4933592;29;20035;-51
2022/07/20 04:45:22;;;;;;;2.40;1.50;;;;;;;;;;4934162;29;20076;-56
2022/07/20 04:47:48;;;;;;;3.35;1.40;;;;;;;;;;4934810;29;20417;-51
2022/07/20 04:50:15;;;;;;;3.08;1.70;;;;;;;;;;4934541;29;20062;-52
2022/07/20 04:52:42;;;;;;;3.17;1.40;;;;;;;;;;4932299;29;20058;-53
2022/07/20 04:55:09;;;;;;;4.45;1.55;;;;;;;;;;4934509;29;20466;-51
2022/07/20 04:57:36;;;;;;;3.13;1.55;;;;;;;;;;4934658;29;20032;-53
2022/07/20 05:00:04;;;;;;;4.13;1.70;;;;;;;;;;4934370;29;20024;-52
2022/07/20 05:02:31;;;;;;;3.33;1.58;;;;;;;;;;4934248;29;20068;-56
2022/07/20 05:04:58;;;;;;;3.65;1.77;;;;;;;;;;4933724;29;20080;-53
2022/07/20 05:07:25;;;;;;;3.28;1.70;;;;;;;;;;4938465;29;20024;-55
2022/07/20 05:09:52;;;;;;;3.05;1.63;;;;;;;;;;4938555;29;20534;-55
2022/07/20 05:12:19;;;;;;;3.00;1.50;;;;;;;;;;4937980;29;20035;-51
2022/07/20 05:14:46;;;;;;;3.38;1.55;;;;;;;;;;4937868;29;20062;-55
2022/07/20 05:17:13;;;;;;;3.45;1.80;;;;;;;;;;4934672;29;20027;-54
2022/07/20 05:19:40;;;;;;;4.03;2.13;;;;;;;;;;4938056;29;20023;-56
2022/07/20 05:22:07;;;;;;;3.13;1.63;;;;;;;;;;4938345;29;20036;-54
2022/07/20 05:24:34;;;;;;;3.17;1.77;;;;;;;;;;4937713;29;20020;-54
2022/07/20 05:27:01;;;;;;;3.72;1.52;;;;;;;;;;4937488;29;20478;-55
2022/07/20 05:29:28;;;;;;;4.18;1.70;;;;;;;;;;4936829;29;20063;-56
2022/07/20 05:31:55;;;;;;;3.53;1.50;;;;;;;;;;4937492;29;20044;-54
2022/07/20 05:34:22;;;;;;;2.58;1.60;;;;;;;;;;4936941;29;20038;-55
2022/07/20 05:36:49;;;;;;;3.50;1.73;;;;;;;;;;4937596;29;20398;-54
2022/07/20 05:39:15;;;;;;;7.07;1.70;;;;;;;;;;4936602;29;20051;-53
2022/07/20 05:41:42;;;;;;;3.03;1.55;;;;;;;;;;4936775;29;20059;-52
2022/07/20 05:44:09;;;;;;;2.78;1.50;;;;;;;;;;4937592;29;20028;-56
2022/07/20 05:46:36;;;;;;;4.93;1.45;;;;;;;;;;4937202;29;20103;-51
2022/07/20 05:49:03;;;;;;;4.15;1.80;;;;;;;;;;4937517;29;20023;-52
2022/07/20 05:51:30;;;;;;;1.98;1.55;;;;;;;;;;4935959;29;20398;-55
2022/07/20 05:53:57;;;;;;;4.50;1.70;;;;;;;;;;4936174;29;20399;-53
2022/07/20 05:56:24;;;;;;;5.65;1.80;;;;;;;;;;4937796;29;20027;-54
2022/07/20 05:58:51;;;;;;;6.28;1.85;;;;;;;;;;4937310;29;20062;-52
2022/07/20 06:01:18;;;;;;;3.35;1.70;;;;;;;;;;4937250;29;20024;-50
2022/07/20 06:03:45;;;;;;;2.75;1.63;;;;;;;;;;4935512;29;20409;-55
2022/07/20 06:06:12;;;;;;;4.68;1.38;;;;;;;;;;4936494;29;20482;-54
2022/07/20 06:08:39;;;;;;;2.28;1.60;;;;;;;;;;4936562;29;20047;-51
2022/07/20 06:11:08;;;;;;;2.42;1.60;;;;;;;;;;4937635;29;20035;-53
2022/07/20 06:13:35;;;;;;;3.53;1.60;;;;;;;;;;4936817;29;20446;-51
2022/07/20 06:16:02;;;;;;;4.03;1.45;;;;;;;;;;4933925;29;20032;-54
2022/07/20 06:18:29;;;;;;;2.67;1.35;;;;;;;;;;4937075;29;20023;-55
2022/07/20 06:20:56;;;;;;;4.70;1.80;;;;;;;;;;4936587;29;20031;-52
2022/07/20 06:23:23;;;;;;;4.18;1.77;;;;;;;;;;4937130;29;20050;-52
2022/07/20 06:25:50;;;;;;;4.65;1.90;;;;;;;;;;4936666;29;20122;-54
2022/07/20 06:28:17;;;;;;;2.85;1.65;;;;;;;;;;4934379;29;20039;-54
2022/07/20 06:30:44;;;;;;;2.40;1.58;;;;;;;;;;4937209;29;20024;-54
2022/07/20 06:33:10;;;;;;;2.65;1.70;;;;;;;;;;4936613;29;20027;-53
2022/07/20 06:35:37;;;;;;;4.40;1.60;;;;;;;;;;4936034;29;20079;-56
2022/07/20 06:38:04;;;;;;;3.65;1.80;;;;;;;;;;4935679;29;20492;-55
2022/07/20 06:40:31;;;;;;;4.25;1.65;;;;;;;;;;4934360;29;20035;-54
2022/07/20 06:42:58;;;;;;;3.42;1.50;;;;;;;;;;4936411;29;20038;-52
2022/07/20 06:45:25;;;;;;;2.63;1.80;;;;;;;;;;4935802;29;20048;-53
2022/07/20 06:47:52;;;;;;;2.47;1.70;;;;;;;;;;4936927;29;20023;-52
2022/07/20 06:50:19;;;;;;;2.22;1.63;;;;;;;;;;4936157;29;20059;-53
2022/07/20 06:52:46;;;;;;;2.63;1.70;;;;;;;;;;4934239;29;20043;-54
2022/07/20 06:55:13;;;;;;;3.05;1.60;;;;;;;;;;4935640;29;20035;-55
2022/07/20 06:57:40;;;;;;;3.13;1.85;;;;;;;;;;4936305;29;20054;-52
2022/07/20 07:00:08;;;;;;;2.80;1.40;;;;;;;;;;4936340;29;20639;-54
2022/07/20 07:02:35;;;;;;;3.38;1.85;;;;;;;;;;4936098;29;20106;-54
2022/07/20 07:05:02;;;;;;;1.98;1.40;;;;;;;;;;4933730;29;20478;-56
2022/07/20 07:07:29;;;;;;;4.13;1.60;;;;;;;;;;4936420;29;20434;-57
2022/07/20 07:09:56;;;;;;;3.10;1.80;;;;;;;;;;4936123;29;20805;-54
2022/07/20 07:12:23;;;;;;;3.55;1.80;;;;;;;;;;4936151;29;20078;-56
2022/07/20 07:14:50;;;;;;;3.72;1.73;;;;;;;;;;4934550;29;20537;-57
2022/07/20 07:17:18;;;;;;;3.28;1.85;;;;;;;;;;4934565;29;20482;-54
2022/07/20 07:19:45;;;;;;;2.78;1.50;;;;;;;;;;4935846;29;20031;-55
2022/07/20 07:22:12;;;;;;;2.83;1.63;;;;;;;;;;4935547;29;20035;-57
2022/07/20 07:24:39;;;;;;;3.90;1.92;;;;;;;;;;4935882;29;20394;-53
2022/07/20 07:27:06;;;;;;;4.95;1.40;;;;;;;;;;4933554;29;20031;-55
2022/07/20 07:29:33;;;;;;;2.60;1.60;;;;;;;;;;4934869;29;20036;-55
2022/07/20 07:32:00;;;;;;;4.22;1.52;;;;;;;;;;4935512;29;20394;-54
2022/07/20 07:34:28;;;;;;;2.00;1.50;;;;;;;;;;4936017;29;20028;-54
2022/07/20 07:36:55;;;;;;;3.60;1.40;;;;;;;;;;4935180;29;20075;-56
2022/07/20 07:39:22;;;;;;;2.42;1.70;;;;;;;;;;4933563;29;20031;-56
2022/07/20 07:41:48;;;;;;;3.20;1.63;;;;;;;;;;4934914;29;20505;-53
2022/07/20 07:44:15;;;;;;;2.08;1.33;;;;;;;;;;4934560;29;20032;-55
2022/07/20 07:46:42;;;;;;;2.92;1.70;;;;;;;;;;4935405;29;20059;-55
2022/07/20 07:49:09;;;;;;;2.70;1.50;;;;;;;;;;4935748;29;20106;-55
2022/07/20 07:51:37;;;;;;;3.42;1.90;;;;;;;;;;4932793;29;20051;-53
2022/07/20 07:54:04;;;;;;;2.25;1.50;;;;;;;;;;4935313;29;20074;-54
2022/07/20 07:56:31;;;;;;;2.80;1.40;;;;;;;;;;4935027;29;20115;-56
2022/07/20 07:58:58;;;;;;;2.17;1.55;;;;;;;;;;4935219;29;20047;-56
2022/07/20 08:01:25;;;;;;;3.80;1.75;;;;;;;;;;4935253;29;20084;-55
2022/07/20 08:03:52;;;;;;;2.25;1.60;;;;;;;;;;4932520;29;20451;-49
2022/07/20 08:06:19;;;;;;;2.10;1.65;;;;;;;;;;4935026;29;20047;-56
2022/07/20 08:08:46;;;;;;;2.25;1.58;;;;;;;;;;4934933;29;20039;-54
2022/07/20 08:11:15;;;;;;;2.83;1.60;;;;;;;;;;4934923;29;20046;-55
2022/07/20 08:13:42;;;;;;;2.38;1.50;;;;;;;;;;4935381;29;20032;-55
2022/07/20 08:16:08;;;;;;;2.22;1.40;;;;;;;;;;4932452;29;20490;-51
2022/07/20 08:18:35;;;;;;;3.78;2.00;;;;;;;;;;4935186;29;20055;-56
2022/07/20 08:21:02;;;;;;;3.25;1.52;;;;;;;;;;4934548;29;20032;-55
2022/07/20 08:23:29;;;;;;;2.58;1.38;;;;;;;;;;4935262;29;20110;-51
2022/07/20 08:25:56;;;;;;;2.65;1.73;;;;;;;;;;4934230;29;20486;-54
2022/07/20 08:28:23;;;;;;;4.70;1.85;;;;;;;;;;4933019;29;20024;-54
2022/07/20 08:30:52;;;;;;;2.13;1.52;;;;;;;;;;4934804;29;20031;-54
2022/07/20 08:33:19;;;;;;;3.17;1.50;;;;;;;;;;4934815;29;20036;-52
2022/07/20 08:35:46;;;;;;;3.15;1.50;;;;;;;;;;4934573;29;20051;-52
2022/07/20 08:38:13;;;;;;;2.30;1.35;;;;;;;;;;4934467;29;20034;-54
2022/07/20 08:40:41;;;;;;;3.17;1.50;;;;;;;;;;4937266;29;20036;-54
2022/07/20 08:43:08;;;;;;;2.08;1.50;;;;;;;;;;4941259;29;20027;-50
2022/07/20 08:45:35;;;;;;;1.90;1.58;;;;;;;;;;4941228;29;20047;-53
2022/07/20 08:48:03;;;;;;;2.22;1.40;;;;;;;;;;4940694;29;20127;-51
2022/07/20 08:50:31;;;;;;;2.90;1.70;;;;;;;;;;4940437;29;20027;-54
2022/07/20 08:52:58;;;;;;;3.10;1.40;;;;;;;;;;4939424;29;20122;-55
2022/07/20 08:55:26;;;;;;;1.65;1.35;;;;;;;;;;4939870;29;20056;-54
2022/07/20 08:57:53;;;;;;;5.47;1.77;;;;;;;;;;4941348;29;20034;-53
2022/07/20 09:00:20;;;;;;;2.22;1.90;;;;;;;;;;4940420;29;20062;-54
2022/07/20 09:02:50;;;;;;;1.98;1.52;;;;;;;;;;4939012;29;20074;-52
2022/07/20 09:05:17;;;;;;;2.53;1.48;;;;;;;;;;4940442;29;20114;-54
2022/07/20 09:07:45;;;;;;;3.10;1.63;;;;;;;;;;4940523;29;20066;-50
2022/07/20 09:10:13;;;;;;;2.03;1.30;;;;;;;;;;4940739;29;20130;-55
2022/07/20 09:13:12;;;;;;;4.03;1.58;;;;;;;;;;4941104;29;20048;-55
2022/07/20 09:15:44;;;;;;;1.95;1.58;;;;;;;;;;4926900;29;20066;-53
2022/07/20 09:18:13;;;;;;;5.88;1.40;;;;;;;;;;4940656;29;20478;-56
2022/07/20 09:20:47;;;;;;;3.10;1.75;;;;;;;;;;4940902;29;20118;-56
2022/07/20 09:23:16;;;;;;;3.65;1.85;;;;;;;;;;4940070;29;20061;-54
2022/07/20 09:25:58;;;;;;;3.20;1.70;;;;;;;;;;4940423;29;20058;-55
2022/07/20 09:28:36;;;;;;;2.58;1.80;;;;;;;;;;4938215;29;20446;-53
2022/07/20 09:31:04;;;;;;;2.13;1.45;;;;;;;;;;4939486;29;20031;-55
2022/07/20 09:33:32;;;;;;;2.67;1.60;;;;;;;;;;4940909;29;20478;-52
2022/07/20 09:36:02;;;;;;;4.78;1.70;;;;;;;;;;4940471;29;20052;-53
2022/07/20 09:38:34;;;;;;;4.90;1.92;;;;;;;;;;4939085;29;20146;-54
2022/07/20 09:41:01;;;;;;;5.43;1.80;;;;;;;;;;4939661;29;20050;-51
2022/07/20 09:43:30;;;;;;;1.90;1.40;;;;;;;;;;4940653;29;20038;-54
2022/07/20 09:46:08;;;;;;;2.33;1.70;;;;;;;;;;4940256;29;20410;-52
2022/07/20 09:48:46;;;;;;;1.88;1.65;;;;;;;;;;4940431;29;20038;-52
2022/07/20 09:51:19;;;;;;;2.65;1.90;;;;;;;;;;4936349;29;20044;-55
2022/07/20 09:53:47;;;;;;;2.78;2.00;;;;;;;;;;4937904;29;20556;-54
2022/07/20 09:56:16;;;;;;;4.90;2.20;;;;;;;;;;4937494;29;20032;-50
2022/07/20 09:58:45;;;;;;;4.18;2.00;;;;;;;;;;4937595;29;20028;-54
2022/07/20 10:01:14;;;;;;;2.95;1.73;;;;;;;;;;4937218;29;20036;-56
2022/07/20 10:03:41;;;;;;;4.85;1.65;;;;;;;;;;4935052;29;20039;-54
2022/07/20 10:06:08;;;;;;;3.92;2.00;;;;;;;;;;4937009;29;20035;-52
2022/07/20 10:08:35;;;;;;;3.83;2.08;;;;;;;;;;4937334;29;20031;-52
2022/07/20 10:11:02;;;;;;;2.47;1.58;;;;;;;;;;4936917;29;20437;-54
2022/07/20 10:13:30;;;;;;;2.28;1.70;;;;;;;;;;4936818;29;20031;-54
2022/07/20 10:16:16;;;;;;;2.80;1.92;;;;;;;;;;4934983;29;20499;-55
2022/07/20 10:18:47;;;;;;;4.18;2.13;;;;;;;;;;4937190;29;20115;-52
2022/07/20 10:21:49;;;;;;;3.28;1.70;;;;;;;;;;4936563;29;20075;-57
2022/07/20 10:24:31;;;;;;;3.08;2.03;;;;;;;;;;4878496;29;20040;-50
2022/07/20 10:26:58;;;;;;;;;;;;;;;;;;4929752;29;20762;-52
2022/07/20 10:29:26;;;;;;;3.85;1.75;;;;;;;;;;4936757;29;20329;-56
2022/07/20 10:31:54;;;;;;;3.75;2.10;;;;;;;;;;4936632;29;20043;-55
2022/07/20 10:34:32;;;;;;;4.32;1.95;;;;;;;;;;4936543;29;20058;-51
2022/07/20 10:37:17;;;;;;;3.40;1.70;;;;;;;;;;4936763;29;20042;-52
2022/07/20 10:39:48;;;;;;;3.88;2.08;;;;;;;;;;4934400;29;20032;-54
2022/07/20 10:42:20;;;;;;;2.58;1.90;;;;;;;;;;4936648;29;20067;-54
2022/07/20 10:44:47;;;;;;;3.53;1.83;;;;;;;;;;4936201;29;20080;-52
2022/07/20 10:47:33;;;;;;;3.63;1.85;;;;;;;;;;4936251;29;20399;-54
2022/07/20 10:50:02;;;;;;;3.38;2.03;;;;;;;;;;4935851;29;20486;-52
2022/07/20 10:52:34;;;;;;;5.82;1.80;;;;;;;;;;4934340;29;20036;-55
2022/07/20 10:55:01;;;;;;;3.20;1.98;;;;;;;;;;4936119;29;20039;-52
2022/07/20 10:57:28;;;;;;;3.17;1.85;;;;;;;;;;4936100;29;20031;-53
2022/07/20 11:00:21;;;;;;;4.38;2.10;;;;;;;;;;4936369;29;20035;-55
2022/07/20 11:02:48;;;;;;;;;;;;;;;;;;4931884;29;20078;-55
2022/07/20 11:05:21;;;;;;;3.58;1.90;;;;;;;;;;4935261;29;19911;-52
2022/07/20 11:07:49;;;;;;;5.43;1.90;;;;;;;;;;4935879;29;20080;-54
2022/07/20 11:10:20;;;;;;;6.63;2.00;;;;;;;;;;4936212;29;20028;-56
2022/07/20 11:12:54;;;;;;;4.18;1.42;;;;;;;;;;4935806;29;20039;-53
2022/07/20 11:15:21;;;;;;;2.67;1.80;;;;;;;;;;4933265;29;20563;-55
2022/07/20 11:17:48;;;;;;;3.15;2.03;;;;;;;;;;4934086;29;20417;-53
2022/07/20 11:20:19;;;;;;;4.13;1.98;;;;;;;;;;4935620;29;20108;-55
2022/07/20 11:22:46;;;;;;;3.53;2.08;;;;;;;;;;4936079;29;20494;-53
2022/07/20 11:25:13;;;;;;;2.38;1.73;;;;;;;;;;4935426;29;20098;-52
2022/07/20 11:27:40;;;;;;;4.90;2.05;;;;;;;;;;4932209;29;20538;-54
2022/07/20 11:30:08;;;;;;;4.20;1.95;;;;;;;;;;4935892;29;20079;-49
2022/07/20 11:32:35;;;;;;;5.13;1.88;;;;;;;;;;4935043;29;20043;-54
2022/07/20 11:35:05;;;;;;;2.08;1.50;;;;;;;;;;4935809;29;20044;-56
2022/07/20 11:37:32;;;;;;;6.53;1.80;;;;;;;;;;4934592;29;20035;-52
2022/07/20 11:39:59;;;;;;;3.60;1.80;;;;;;;;;;4933219;29;20028;-55
2022/07/20 11:42:26;;;;;;;3.28;1.90;;;;;;;;;;4935330;29;20023;-54
2022/07/20 11:45:00;;;;;;;4.57;1.90;;;;;;;;;;4935352;29;20035;-55
2022/07/20 11:47:27;;;;;;;3.10;1.85;;;;;;;;;;4933419;29;20032;-56
2022/07/20 11:50:07;;;;;;;4.68;1.88;;;;;;;;;;4934610;29;20498;-54
2022/07/20 11:52:44;;;;;;;4.57;1.77;;;;;;;;;;4934094;29;20046;-51
2022/07/20 11:55:11;;;;;;;2.53;1.70;;;;;;;;;;4934659;29;20056;-51
2022/07/20 11:57:38;;;;;;;2.78;1.80;;;;;;;;;;4935650;29;20064;-53
2022/07/20 12:00:06;;;;;;;3.08;1.92;;;;;;;;;;4952209;29;20063;-52
2022/07/20 12:02:33;;;;;;;2.80;1.70;;;;;;;;;;4952775;29;20518;-53
2022/07/20 12:05:00;;;;;;;3.28;1.88;;;;;;;;;;4953484;29;20050;-56
2022/07/20 12:10:20;;;;;;;4.65;1.95;;;;;;;;;;4954171;29;20572;-55
2022/07/20 12:13:00;;;;;;;4.50;2.03;;;;;;;;;;4953358;29;20148;-53
2022/07/20 12:15:27;;;;;;;2.92;1.60;;;;;;;;;;4950971;28;20042;-53
2022/07/20 12:17:55;;;;;;;4.20;1.77;;;;;;;;;;4954015;29;20031;-50
2022/07/20 12:20:23;;;;;;;4.90;1.98;;;;;;;;;;4953718;29;20086;-54
2022/07/20 12:22:54;;;;;;;3.92;1.70;;;;;;;;;;4953936;29;20038;-56
2022/07/20 12:25:21;;;;;;;5.43;1.85;;;;;;;;;;4953776;29;20034;-53
2022/07/20 12:27:49;;;;;;;3.75;1.80;;;;;;;;;;4951933;29;20031;-54
2022/07/20 12:30:34;;;;;;;3.05;1.70;;;;;;;;;;4953849;29;20063;-54
2022/07/20 12:33:11;;;;;;;4.20;1.85;;;;;;;;;;4953208;29;20035;-54
2022/07/20 12:35:38;;;;;;;4.00;1.70;;;;;;;;;;4953788;29;20110;-50
2022/07/20 12:38:06;;;;;;;5.18;1.70;;;;;;;;;;4952417;29;20509;-55
2022/07/20 12:40:44;;;;;;;1.75;1.40;;;;;;;;;;4935262;29;20130;-51
2022/07/20 12:43:29;;;;;;;2.70;1.80;;;;;;;;;;4953539;29;20120;-52
2022/07/20 12:45:58;;;;;;;4.80;1.98;;;;;;;;;;4953544;29;20071;-54
2022/07/20 12:48:25;;;;;;;2.75;1.70;;;;;;;;;;4953676;29;20063;-51
2022/07/20 12:51:01;;;;;;;4.53;1.75;;;;;;;;;;4951415;29;20391;-54
2022/07/20 12:53:28;;;;;;;3.28;1.77;;;;;;;;;;4953647;29;20043;-55
2022/07/20 12:55:55;;;;;;;2.22;1.75;;;;;;;;;;4953639;29;20019;-55
2022/07/20 12:58:22;;;;;;;2.28;1.60;;;;;;;;;;4953523;29;20035;-54
2022/07/20 13:00:49;;;;;;;3.63;1.90;;;;;;;;;;4953955;29;20059;-56
2022/07/20 13:03:16;;;;;;;4.53;1.77;;;;;;;;;;4951052;29;20046;-52
2022/07/20 13:05:43;;;;;;;2.70;1.63;;;;;;;;;;4952772;29;20038;-56
2022/07/20 13:08:10;;;;;;;2.17;1.50;;;;;;;;;;4953510;29;20019;-55
2022/07/20 13:10:37;;;;;;;3.47;1.73;;;;;;;;;;4935746;29;20046;-50
2022/07/20 13:13:04;;;;;;;2.97;1.67;;;;;;;;;;4953467;29;20086;-52
2022/07/20 13:15:30;;;;;;;2.50;1.52;;;;;;;;;;4951120;29;20028;-52
2022/07/20 13:17:58;;;;;;;3.17;1.42;;;;;;;;;;4944009;29;20536;-55
2022/07/20 13:20:25;;;;;;;2.95;1.60;;;;;;;;;;4934611;29;20043;-54
2022/07/20 13:22:53;;;;;;;2.78;1.55;;;;;;;;;;4933998;29;20031;-54
2022/07/20 13:25:20;;;;;;;5.03;1.67;;;;;;;;;;4934043;29;20055;-54
2022/07/20 13:27:47;;;;;;;4.57;1.60;;;;;;;;;;4935900;29;20098;-54
2022/07/20 13:30:14;;;;;;;4.63;1.70;;;;;;;;;;4937440;29;20047;-51
2022/07/20 13:32:43;;;;;;;4.47;1.80;;;;;;;;;;4938137;29;20062;-54
2022/07/20 13:35:10;;;;;;;3.92;1.77;;;;;;;;;;4937191;29;20036;-53
2022/07/20 13:37:38;;;;;;;3.50;1.63;;;;;;;;;;4937098;29;20087;-50
2022/07/20 13:40:08;;;;;;;4.28;1.85;;;;;;;;;;4935849;29;20024;-54
2022/07/20 13:42:35;;;;;;;3.85;1.77;;;;;;;;;;4937199;29;20406;-51
2022/07/20 13:45:02;;;;;;;4.15;1.70;;;;;;;;;;4936654;29;20032;-54
2022/07/20 13:47:29;;;;;;;3.83;1.63;;;;;;;;;;4937487;29;20102;-55
2022/07/20 13:49:56;;;;;;;3.28;1.40;;;;;;;;;;4936029;29;20023;-52
2022/07/20 13:52:23;;;;;;;4.70;1.50;;;;;;;;;;4936133;29;20067;-56
2022/07/20 13:54:50;;;;;;;3.92;1.90;;;;;;;;;;4937352;29;20027;-55
2022/07/20 13:57:17;;;;;;;2.88;1.38;;;;;;;;;;4936731;29;20383;-55
2022/07/20 13:59:44;;;;;;;3.47;1.65;;;;;;;;;;4937465;29;20051;-53
2022/07/20 14:02:11;;;;;;;5.97;1.67;;;;;;;;;;4934036;29;20493;-55
2022/07/20 14:04:38;;;;;;;3.33;1.60;;;;;;;;;;4936396;29;20059;-54
2022/07/20 14:07:05;;;;;;;6.55;1.60;;;;;;;;;;4937138;29;20024;-51
2022/07/20 14:09:32;;;;;;;3.42;1.15;;;;;;;;;;4937396;29;20051;-56
2022/07/20 14:11:59;;;;;;;4.32;1.70;;;;;;;;;;4937011;29;20449;-53
2022/07/20 14:14:26;;;;;;;4.30;1.50;;;;;;;;;;4934375;29;20118;-55
2022/07/20 14:16:53;;;;;;;5.40;1.40;;;;;;;;;;4936761;29;20063;-54
2022/07/20 14:19:20;;;;;;;2.22;1.30;;;;;;;;;;4936769;29;20387;-56
2022/07/20 14:21:47;;;;;;;5.35;1.77;;;;;;;;;;4936920;29;20107;-54
2022/07/20 14:24:14;;;;;;;3.13;1.40;;;;;;;;;;4937051;29;20075;-53
2022/07/20 14:26:41;;;;;;;5.60;1.83;;;;;;;;;;4934289;29;20024;-55
2022/07/20 14:29:08;;;;;;;3.05;1.23;;;;;;;;;;4936211;29;20032;-56
2022/07/20 14:31:35;;;;;;;6.50;1.80;;;;;;;;;;4936859;29;20024;-53
2022/07/20 14:34:02;;;;;;;4.45;1.45;;;;;;;;;;4936507;29;20050;-56
2022/07/20 14:36:29;;;;;;;5.05;1.60;;;;;;;;;;4936127;29;20487;-55
2022/07/20 14:38:56;;;;;;;8.40;1.58;;;;;;;;;;4933219;29;20055;-54
2022/07/20 14:41:23;;;;;;;4.88;1.60;;;;;;;;;;4936430;29;20603;-54
2022/07/20 14:43:50;;;;;;;4.25;1.42;;;;;;;;;;4936700;29;20438;-55
2022/07/20 14:46:17;;;;;;;5.03;1.90;;;;;;;;;;4935570;29;20043;-52
2022/07/20 14:48:44;;;;;;;3.80;1.55;;;;;;;;;;4935981;29;20111;-54
2022/07/20 14:51:11;;;;;;;4.97;1.48;;;;;;;;;;4934288;29;20415;-54
2022/07/20 14:53:38;;;;;;;3.03;1.60;;;;;;;;;;4935686;29;20075;-53
2022/07/20 14:56:05;;;;;;;3.40;1.85;;;;;;;;;;4936557;29;20521;-56